sensor_id;sensor_type;location;lat;lon;timestamp;temperature;humidity
12771;DHT22;6449;47.666;9.160;2023-12-04T00:59:08;-2.70;99.90
12771;DHT22;6449;47.666;9.160;2023-12-04T01:25:51;-3.20;99.90
12771;DHT22;6449;47.666;9.160;2023-12-04T01:30:44;-3.20;99.90
12771;DHT22;6449;47.666;9.160;2023-12-04T01:35:38;-3.10;99.90
12771;DHT22;6449;47.666;9.160;2023-12-04T01:40:31;-3.10;99.90
12771;DHT22;6449;47.666;9.160;2023-12-04T01:50:32;-3.40;99.90
12771;DHT22;6449;47.666;9.160;2023-12-04T01:55:27;-3.40;99.90
12771;DHT22;6449;47.666;9.160;2023-12-04T02:00:21;-3.50;99.90
12771;DHT22;6449;47.666;9.160;2023-12-04T02:05:14;-3.50;99.90
12771;DHT22;6449;47.666;9.160;2023-12-04T02:10:10;-3.40;99.90
12771;DHT22;6449;47.666;9.160;2023-12-04T02:15:05;-3.50;99.90
12771;DHT22;6449;47.666;9.160;2023-12-04T02:20:01;-3.60;99.90
12771;DHT22;6449;47.666;9.160;2023-12-04T02:24:58;-3.90;99.90
12771;DHT22;6449;47.666;9.160;2023-12-04T02:29:55;-3.90;99.90
12771;DHT22;6449;47.666;9.160;2023-12-04T02:34:53;-4.10;99.90
12771;DHT22;6449;47.666;9.160;2023-12-04T02:39:48;-4.00;99.90
12771;DHT22;6449;47.666;9.160;2023-12-04T02:44:45;-4.20;99.90
12771;DHT22;6449;47.666;9.160;2023-12-04T02:49:39;-4.10;99.90
12771;DHT22;6449;47.666;9.160;2023-12-04T02:54:32;-3.90;99.90
12771;DHT22;6449;47.666;9.160;2023-12-04T02:59:25;-4.00;99.90
12771;DHT22;6449;47.666;9.160;2023-12-04T03:04:20;-3.80;99.90
12771;DHT22;6449;47.666;9.160;2023-12-04T03:09:14;-3.60;99.90
12771;DHT22;6449;47.666;9.160;2023-12-04T03:14:07;-3.20;99.90
12771;DHT22;6449;47.666;9.160;2023-12-04T03:19:01;-3.00;99.90
12771;DHT22;6449;47.666;9.160;2023-12-04T03:23:56;-2.90;99.90
12771;DHT22;6449;47.666;9.160;2023-12-04T03:28:49;-3.30;99.90
12771;DHT22;6449;47.666;9.160;2023-12-04T03:33:42;-3.30;99.90
12771;DHT22;6449;47.666;9.160;2023-12-04T03:38:36;-3.20;99.90
12771;DHT22;6449;47.666;9.160;2023-12-04T03:43:31;-3.10;99.90
12771;DHT22;6449;47.666;9.160;2023-12-04T03:48:24;-3.10;99.90
12771;DHT22;6449;47.666;9.160;2023-12-04T03:53:18;-3.10;99.90
12771;DHT22;6449;47.666;9.160;2023-12-04T03:58:12;-3.30;99.90
12771;DHT22;6449;47.666;9.160;2023-12-04T04:03:07;-3.10;99.90
12771;DHT22;6449;47.666;9.160;2023-12-04T04:08:01;-3.30;99.90
12771;DHT22;6449;47.666;9.160;2023-12-04T04:12:56;-3.30;99.90
12771;DHT22;6449;47.666;9.160;2023-12-04T04:17:50;-3.50;99.90
12771;DHT22;6449;47.666;9.160;2023-12-04T04:22:47;-3.30;99.90
12771;DHT22;6449;47.666;9.160;2023-12-04T04:27:40;-3.20;99.90
12771;DHT22;6449;47.666;9.160;2023-12-04T04:32:34;-3.30;99.90
12771;DHT22;6449;47.666;9.160;2023-12-04T04:37:27;-3.20;99.90
12771;DHT22;6449;47.666;9.160;2023-12-04T04:42:22;-3.50;99.90
12771;DHT22;6449;47.666;9.160;2023-12-04T04:47:16;-3.60;99.90
12771;DHT22;6449;47.666;9.160;2023-12-04T04:52:09;-3.70;99.90
12771;DHT22;6449;47.666;9.160;2023-12-04T04:57:03;-3.60;99.90
12771;DHT22;6449;47.666;9.160;2023-12-04T05:01:57;-3.80;99.90
12771;DHT22;6449;47.666;9.160;2023-12-04T05:06:51;-3.60;99.90
12771;DHT22;6449;47.666;9.160;2023-12-04T05:11:44;-3.50;99.90
12771;DHT22;6449;47.666;9.160;2023-12-04T05:16:38;-3.30;99.90
12771;DHT22;6449;47.666;9.160;2023-12-04T05:21:32;-3.20;99.90
12771;DHT22;6449;47.666;9.160;2023-12-04T05:26:26;-3.10;99.90
12771;DHT22;6449;47.666;9.160;2023-12-04T05:31:19;-2.90;99.90
12771;DHT22;6449;47.666;9.160;2023-12-04T05:36:13;-2.80;99.90
12771;DHT22;6449;47.666;9.160;2023-12-04T05:41:07;-2.90;99.90
12771;DHT22;6449;47.666;9.160;2023-12-04T05:46:01;-3.00;99.90
12771;DHT22;6449;47.666;9.160;2023-12-04T05:50:54;-3.00;99.90
12771;DHT22;6449;47.666;9.160;2023-12-04T05:55:47;-3.00;99.90
12771;DHT22;6449;47.666;9.160;2023-12-04T06:00:42;-2.80;99.90
12771;DHT22;6449;47.666;9.160;2023-12-04T06:05:36;-2.80;99.90
12771;DHT22;6449;47.666;9.160;2023-12-04T06:10:29;-2.80;99.90
12771;DHT22;6449;47.666;9.160;2023-12-04T06:15:24;-2.80;99.90
12771;DHT22;6449;47.666;9.160;2023-12-04T06:20:19;-2.70;99.90
12771;DHT22;6449;47.666;9.160;2023-12-04T06:25:13;-2.60;99.90
12771;DHT22;6449;47.666;9.160;2023-12-04T06:30:11;-2.60;99.90
12771;DHT22;6449;47.666;9.160;2023-12-04T06:35:05;-2.70;99.90
12771;DHT22;6449;47.666;9.160;2023-12-04T06:40:01;-2.60;99.90
12771;DHT22;6449;47.666;9.160;2023-12-04T06:44:56;-2.60;99.90
12771;DHT22;6449;47.666;9.160;2023-12-04T06:49:50;-2.60;99.90
12771;DHT22;6449;47.666;9.160;2023-12-04T06:54:43;-2.50;99.90
12771;DHT22;6449;47.666;9.160;2023-12-04T06:59:38;-2.50;99.90
12771;DHT22;6449;47.666;9.160;2023-12-04T07:04:31;-2.70;99.90
12771;DHT22;6449;47.666;9.160;2023-12-04T07:09:25;-2.80;99.90
12771;DHT22;6449;47.666;9.160;2023-12-04T07:14:19;-3.00;99.90
12771;DHT22;6449;47.666;9.160;2023-12-04T07:19:14;-3.10;99.90
12771;DHT22;6449;47.666;9.160;2023-12-04T07:24:08;-3.20;99.90
12771;DHT22;6449;47.666;9.160;2023-12-04T07:29:02;-3.10;99.90
12771;DHT22;6449;47.666;9.160;2023-12-04T07:33:56;-3.00;99.90
12771;DHT22;6449;47.666;9.160;2023-12-04T07:38:54;-3.00;99.90
12771;DHT22;6449;47.666;9.160;2023-12-04T07:43:47;-3.10;99.90
12771;DHT22;6449;47.666;9.160;2023-12-04T07:48:41;-3.10;99.90
12771;DHT22;6449;47.666;9.160;2023-12-04T07:53:36;-3.20;99.90
12771;DHT22;6449;47.666;9.160;2023-12-04T07:58:31;-3.20;99.90
12771;DHT22;6449;47.666;9.160;2023-12-04T08:03:24;-3.00;99.90
12771;DHT22;6449;47.666;9.160;2023-12-04T08:08:18;-3.20;99.90
12771;DHT22;6449;47.666;9.160;2023-12-04T08:13:12;-3.10;99.90
12771;DHT22;6449;47.666;9.160;2023-12-04T08:18:07;-3.00;99.90
12771;DHT22;6449;47.666;9.160;2023-12-04T08:23:01;-2.90;99.90
12771;DHT22;6449;47.666;9.160;2023-12-04T08:27:55;-3.10;99.90
12771;DHT22;6449;47.666;9.160;2023-12-04T08:32:48;-3.00;99.90
12771;DHT22;6449;47.666;9.160;2023-12-04T08:37:43;-3.10;99.90
12771;DHT22;6449;47.666;9.160;2023-12-04T08:42:37;-3.20;99.90
12771;DHT22;6449;47.666;9.160;2023-12-04T08:47:30;-3.20;99.90
12771;DHT22;6449;47.666;9.160;2023-12-04T08:52:24;-3.40;99.90
12771;DHT22;6449;47.666;9.160;2023-12-04T08:57:18;-3.00;99.90
12771;DHT22;6449;47.666;9.160;2023-12-04T09:02:12;-3.20;99.90
12771;DHT22;6449;47.666;9.160;2023-12-04T09:07:06;-3.20;99.90
12771;DHT22;6449;47.666;9.160;2023-12-04T09:12:20;-3.10;99.90
12771;DHT22;6449;47.666;9.160;2023-12-04T09:17:14;-3.10;99.90
12771;DHT22;6449;47.666;9.160;2023-12-04T09:22:08;-3.10;99.90
12771;DHT22;6449;47.666;9.160;2023-12-04T09:27:10;-3.00;99.90
12771;DHT22;6449;47.666;9.160;2023-12-04T09:32:05;-2.60;99.90
12771;DHT22;6449;47.666;9.160;2023-12-04T09:36:59;-2.40;99.90
12771;DHT22;6449;47.666;9.160;2023-12-04T09:42:02;-2.30;99.90
12771;DHT22;6449;47.666;9.160;2023-12-04T09:46:56;-2.40;99.90
12771;DHT22;6449;47.666;9.160;2023-12-04T09:51:51;-2.30;99.90
12771;DHT22;6449;47.666;9.160;2023-12-04T09:56:44;-2.20;99.90
12771;DHT22;6449;47.666;9.160;2023-12-04T10:01:39;-2.10;99.90
12771;DHT22;6449;47.666;9.160;2023-12-04T10:06:36;-2.00;99.90
12771;DHT22;6449;47.666;9.160;2023-12-04T10:11:31;-2.00;99.90
12771;DHT22;6449;47.666;9.160;2023-12-04T10:16:35;-2.20;99.90
12771;DHT22;6449;47.666;9.160;2023-12-04T10:21:32;-2.30;99.90
12771;DHT22;6449;47.666;9.160;2023-12-04T10:26:25;-2.40;99.90
12771;DHT22;6449;47.666;9.160;2023-12-04T10:31:23;-2.20;99.90
12771;DHT22;6449;47.666;9.160;2023-12-04T10:36:17;-2.20;99.90
12771;DHT22;6449;47.666;9.160;2023-12-04T10:41:13;-2.30;99.90
12771;DHT22;6449;47.666;9.160;2023-12-04T10:46:07;-2.40;99.90
12771;DHT22;6449;47.666;9.160;2023-12-04T10:51:02;-2.20;99.90
12771;DHT22;6449;47.666;9.160;2023-12-04T10:55:59;-2.10;99.90
12771;DHT22;6449;47.666;9.160;2023-12-04T11:00:55;-1.80;99.90
12771;DHT22;6449;47.666;9.160;2023-12-04T11:06:00;-1.80;99.90
12771;DHT22;6449;47.666;9.160;2023-12-04T11:10:58;-1.90;99.90
12771;DHT22;6449;47.666;9.160;2023-12-04T11:15:59;-1.70;99.90
12771;DHT22;6449;47.666;9.160;2023-12-04T11:20:58;-1.90;99.90
12771;DHT22;6449;47.666;9.160;2023-12-04T11:25:56;-2.10;99.90
12771;DHT22;6449;47.666;9.160;2023-12-04T11:30:50;-2.00;99.90
12771;DHT22;6449;47.666;9.160;2023-12-04T11:35:45;-1.90;99.90
12771;DHT22;6449;47.666;9.160;2023-12-04T11:40:39;-1.70;99.90
12771;DHT22;6449;47.666;9.160;2023-12-04T11:45:39;-1.50;99.90
12771;DHT22;6449;47.666;9.160;2023-12-04T11:50:33;-1.20;99.90
12771;DHT22;6449;47.666;9.160;2023-12-04T11:55:27;-1.00;99.90
12771;DHT22;6449;47.666;9.160;2023-12-04T12:00:21;-1.00;99.90
12771;DHT22;6449;47.666;9.160;2023-12-04T12:05:18;-1.00;99.90
12771;DHT22;6449;47.666;9.160;2023-12-04T12:10:14;-1.10;99.90
12771;DHT22;6449;47.666;9.160;2023-12-04T12:15:09;-1.20;99.90
12771;DHT22;6449;47.666;9.160;2023-12-04T12:20:04;-1.40;99.90
12771;DHT22;6449;47.666;9.160;2023-12-04T12:25:00;-1.60;99.90
12771;DHT22;6449;47.666;9.160;2023-12-04T12:29:53;-1.50;99.90
12771;DHT22;6449;47.666;9.160;2023-12-04T12:34:47;-1.50;99.90
12771;DHT22;6449;47.666;9.160;2023-12-04T12:39:40;-1.50;99.90
12771;DHT22;6449;47.666;9.160;2023-12-04T12:44:39;-1.30;99.90
12771;DHT22;6449;47.666;9.160;2023-12-04T12:49:34;-1.10;99.90
12771;DHT22;6449;47.666;9.160;2023-12-04T12:54:33;-1.10;99.90
12771;DHT22;6449;47.666;9.160;2023-12-04T12:59:27;-1.20;99.90
12771;DHT22;6449;47.666;9.160;2023-12-04T13:04:22;-1.10;99.90
12771;DHT22;6449;47.666;9.160;2023-12-04T13:09:15;-1.00;99.90
12771;DHT22;6449;47.666;9.160;2023-12-04T13:14:10;-1.00;99.90
12771;DHT22;6449;47.666;9.160;2023-12-04T13:19:04;-1.00;99.90
12771;DHT22;6449;47.666;9.160;2023-12-04T13:23:58;-1.00;99.90
12771;DHT22;6449;47.666;9.160;2023-12-04T13:28:52;-0.90;99.90
12771;DHT22;6449;47.666;9.160;2023-12-04T13:33:45;-1.10;99.90
12771;DHT22;6449;47.666;9.160;2023-12-04T13:38:39;-1.20;99.90
12771;DHT22;6449;47.666;9.160;2023-12-04T13:43:33;-1.20;99.90
12771;DHT22;6449;47.666;9.160;2023-12-04T13:48:47;-1.10;99.90
12771;DHT22;6449;47.666;9.160;2023-12-04T13:53:41;-0.90;99.90
12771;DHT22;6449;47.666;9.160;2023-12-04T13:58:38;-0.90;99.90
12771;DHT22;6449;47.666;9.160;2023-12-04T14:03:35;-1.00;99.90
12771;DHT22;6449;47.666;9.160;2023-12-04T14:08:29;-1.10;99.90
12771;DHT22;6449;47.666;9.160;2023-12-04T14:13:23;-1.20;99.90
12771;DHT22;6449;47.666;9.160;2023-12-04T14:18:20;-1.30;99.90
12771;DHT22;6449;47.666;9.160;2023-12-04T14:23:13;-1.40;99.90
12771;DHT22;6449;47.666;9.160;2023-12-04T14:28:08;-1.50;99.90
12771;DHT22;6449;47.666;9.160;2023-12-04T14:33:01;-1.40;99.90
12771;DHT22;6449;47.666;9.160;2023-12-04T14:37:56;-1.40;99.90
12771;DHT22;6449;47.666;9.160;2023-12-04T14:42:49;-1.40;99.90
12771;DHT22;6449;47.666;9.160;2023-12-04T14:47:43;-1.30;99.90
12771;DHT22;6449;47.666;9.160;2023-12-04T14:52:40;-1.40;99.90
12771;DHT22;6449;47.666;9.160;2023-12-04T14:57:42;-1.40;99.90
12771;DHT22;6449;47.666;9.160;2023-12-04T15:03:08;-1.40;99.90
12771;DHT22;6449;47.666;9.160;2023-12-04T15:08:42;-1.30;99.90
12771;DHT22;6449;47.666;9.160;2023-12-04T15:13:52;-1.20;99.90
12771;DHT22;6449;47.666;9.160;2023-12-04T15:18:52;-1.20;99.90
12771;DHT22;6449;47.666;9.160;2023-12-04T15:24:05;-1.30;99.90
12771;DHT22;6449;47.666;9.160;2023-12-04T15:29:00;-1.40;99.90
12771;DHT22;6449;47.666;9.160;2023-12-04T15:33:56;-1.40;99.90
12771;DHT22;6449;47.666;9.160;2023-12-04T15:38:49;-1.30;99.90
12771;DHT22;6449;47.666;9.160;2023-12-04T15:43:44;-1.20;99.90
12771;DHT22;6449;47.666;9.160;2023-12-04T15:48:40;-1.20;99.90
12771;DHT22;6449;47.666;9.160;2023-12-04T15:53:34;-1.20;99.90
12771;DHT22;6449;47.666;9.160;2023-12-04T15:58:27;-1.20;99.90
12771;DHT22;6449;47.666;9.160;2023-12-04T16:03:22;-1.20;99.90
12771;DHT22;6449;47.666;9.160;2023-12-04T16:08:15;-1.20;99.90
12771;DHT22;6449;47.666;9.160;2023-12-04T16:13:09;-1.10;99.90
12771;DHT22;6449;47.666;9.160;2023-12-04T16:18:02;-1.20;99.90
12771;DHT22;6449;47.666;9.160;2023-12-04T16:22:59;-1.20;99.90
12771;DHT22;6449;47.666;9.160;2023-12-04T16:27:53;-1.10;99.90
12771;DHT22;6449;47.666;9.160;2023-12-04T16:32:49;-1.20;99.90
12771;DHT22;6449;47.666;9.160;2023-12-04T16:37:44;-1.20;99.90
12771;DHT22;6449;47.666;9.160;2023-12-04T16:42:39;-1.10;99.90
12771;DHT22;6449;47.666;9.160;2023-12-04T16:47:32;-1.10;99.90
12771;DHT22;6449;47.666;9.160;2023-12-04T16:52:26;-1.00;99.90
12771;DHT22;6449;47.666;9.160;2023-12-04T16:57:19;-1.00;99.90
12771;DHT22;6449;47.666;9.160;2023-12-04T17:02:15;-1.00;99.90
12771;DHT22;6449;47.666;9.160;2023-12-04T17:07:10;-1.30;99.90
12771;DHT22;6449;47.666;9.160;2023-12-04T17:12:09;-1.30;99.90
12771;DHT22;6449;47.666;9.160;2023-12-04T17:17:04;-1.30;99.90
12771;DHT22;6449;47.666;9.160;2023-12-04T17:22:03;-1.30;99.90
12771;DHT22;6449;47.666;9.160;2023-12-04T17:26:57;-1.30;99.90
12771;DHT22;6449;47.666;9.160;2023-12-04T17:31:51;-1.30;99.90
12771;DHT22;6449;47.666;9.160;2023-12-04T17:36:47;-1.30;99.90
12771;DHT22;6449;47.666;9.160;2023-12-04T17:41:44;-1.30;99.90
12771;DHT22;6449;47.666;9.160;2023-12-04T17:46:40;-1.40;99.90
12771;DHT22;6449;47.666;9.160;2023-12-04T17:51:33;-1.30;99.90
12771;DHT22;6449;47.666;9.160;2023-12-04T17:56:28;-1.30;99.90
12771;DHT22;6449;47.666;9.160;2023-12-04T18:01:27;-1.50;99.90
12771;DHT22;6449;47.666;9.160;2023-12-04T18:06:25;-1.40;99.90
12771;DHT22;6449;47.666;9.160;2023-12-04T18:11:23;-1.30;99.90
12771;DHT22;6449;47.666;9.160;2023-12-04T18:16:19;-1.20;99.90
12771;DHT22;6449;47.666;9.160;2023-12-04T18:21:21;-1.10;99.90
12771;DHT22;6449;47.666;9.160;2023-12-04T18:26:15;-1.10;99.90
12771;DHT22;6449;47.666;9.160;2023-12-04T18:31:12;-1.30;99.90
12771;DHT22;6449;47.666;9.160;2023-12-04T18:36:09;-1.40;99.90
12771;DHT22;6449;47.666;9.160;2023-12-04T18:41:07;-1.30;99.90
12771;DHT22;6449;47.666;9.160;2023-12-04T18:46:05;-1.40;99.90
12771;DHT22;6449;47.666;9.160;2023-12-04T18:51:00;-1.40;99.90
12771;DHT22;6449;47.666;9.160;2023-12-04T18:55:53;-1.30;99.90
12771;DHT22;6449;47.666;9.160;2023-12-04T19:00:48;-1.30;99.90
12771;DHT22;6449;47.666;9.160;2023-12-04T19:05:42;-1.20;99.90
12771;DHT22;6449;47.666;9.160;2023-12-04T19:10:35;-1.20;99.90
12771;DHT22;6449;47.666;9.160;2023-12-04T19:15:29;-1.40;99.90
12771;DHT22;6449;47.666;9.160;2023-12-04T19:20:26;-1.40;99.90
12771;DHT22;6449;47.666;9.160;2023-12-04T19:25:21;-1.40;99.90
12771;DHT22;6449;47.666;9.160;2023-12-04T19:30:21;-1.30;99.90
12771;DHT22;6449;47.666;9.160;2023-12-04T19:35:14;-1.30;99.90
12771;DHT22;6449;47.666;9.160;2023-12-04T19:40:14;-1.30;99.90
12771;DHT22;6449;47.666;9.160;2023-12-04T19:45:09;-1.40;99.90
12771;DHT22;6449;47.666;9.160;2023-12-04T19:50:04;-1.50;99.90
12771;DHT22;6449;47.666;9.160;2023-12-04T19:55:01;-1.50;99.90
12771;DHT22;6449;47.666;9.160;2023-12-04T19:59:57;-1.50;99.90
12771;DHT22;6449;47.666;9.160;2023-12-04T20:04:52;-1.40;99.90
12771;DHT22;6449;47.666;9.160;2023-12-04T20:09:48;-1.60;99.90
12771;DHT22;6449;47.666;9.160;2023-12-04T20:14:46;-1.60;99.90
12771;DHT22;6449;47.666;9.160;2023-12-04T20:19:43;-1.50;99.90
12771;DHT22;6449;47.666;9.160;2023-12-04T20:24:37;-1.30;99.90
12771;DHT22;6449;47.666;9.160;2023-12-04T20:29:36;-1.30;99.90
12771;DHT22;6449;47.666;9.160;2023-12-04T20:34:31;-1.20;99.90
12771;DHT22;6449;47.666;9.160;2023-12-04T20:39:29;-1.20;99.90
12771;DHT22;6449;47.666;9.160;2023-12-04T20:44:24;-1.20;99.90
12771;DHT22;6449;47.666;9.160;2023-12-04T20:49:18;-1.10;99.90
12771;DHT22;6449;47.666;9.160;2023-12-04T20:54:13;-1.00;99.90
12771;DHT22;6449;47.666;9.160;2023-12-04T20:59:08;-0.90;99.90
12771;DHT22;6449;47.666;9.160;2023-12-04T21:04:02;-0.70;99.90
12771;DHT22;6449;47.666;9.160;2023-12-04T21:09:02;-0.80;99.90
12771;DHT22;6449;47.666;9.160;2023-12-04T21:14:04;-0.90;99.90
12771;DHT22;6449;47.666;9.160;2023-12-04T21:18:59;-0.80;99.90
12771;DHT22;6449;47.666;9.160;2023-12-04T21:23:57;-0.80;99.90
12771;DHT22;6449;47.666;9.160;2023-12-04T21:28:52;-0.70;99.90
12771;DHT22;6449;47.666;9.160;2023-12-04T21:33:49;-0.70;99.90
12771;DHT22;6449;47.666;9.160;2023-12-04T21:38:45;-0.70;99.90
12771;DHT22;6449;47.666;9.160;2023-12-04T21:43:46;-0.70;99.90
12771;DHT22;6449;47.666;9.160;2023-12-04T21:48:41;-0.60;99.90
12771;DHT22;6449;47.666;9.160;2023-12-04T21:53:37;-0.80;99.90
12771;DHT22;6449;47.666;9.160;2023-12-04T21:58:32;-0.70;99.90
12771;DHT22;6449;47.666;9.160;2023-12-04T22:03:25;-0.70;99.90
12771;DHT22;6449;47.666;9.160;2023-12-04T22:08:19;-0.70;99.90
12771;DHT22;6449;47.666;9.160;2023-12-04T22:13:13;-0.60;99.90
12771;DHT22;6449;47.666;9.160;2023-12-04T22:18:07;-0.60;99.90
12771;DHT22;6449;47.666;9.160;2023-12-04T22:23:01;-0.70;99.90
12771;DHT22;6449;47.666;9.160;2023-12-04T22:27:56;-0.70;99.90
12771;DHT22;6449;47.666;9.160;2023-12-04T22:32:49;-0.70;99.90
12771;DHT22;6449;47.666;9.160;2023-12-04T22:37:44;-0.70;99.90
12771;DHT22;6449;47.666;9.160;2023-12-04T22:42:38;-0.60;99.90
12771;DHT22;6449;47.666;9.160;2023-12-04T22:47:32;-0.60;99.90
12771;DHT22;6449;47.666;9.160;2023-12-04T22:52:26;-0.60;99.90
12771;DHT22;6449;47.666;9.160;2023-12-04T22:57:21;-0.50;99.90
12771;DHT22;6449;47.666;9.160;2023-12-04T23:02:15;-0.50;99.90
12771;DHT22;6449;47.666;9.160;2023-12-04T23:07:09;-0.40;99.90
12771;DHT22;6449;47.666;9.160;2023-12-04T23:12:03;-0.50;99.90
12771;DHT22;6449;47.666;9.160;2023-12-04T23:16:59;-0.50;99.90
12771;DHT22;6449;47.666;9.160;2023-12-04T23:21:52;-0.50;99.90
12771;DHT22;6449;47.666;9.160;2023-12-04T23:26:45;-0.50;99.90
12771;DHT22;6449;47.666;9.160;2023-12-04T23:31:39;-0.40;99.90
12771;DHT22;6449;47.666;9.160;2023-12-04T23:36:34;-0.30;99.90
12771;DHT22;6449;47.666;9.160;2023-12-04T23:41:27;-0.30;99.90
12771;DHT22;6449;47.666;9.160;2023-12-04T23:46:21;-0.30;99.90
12771;DHT22;6449;47.666;9.160;2023-12-04T23:51:14;-0.30;99.90
12771;DHT22;6449;47.666;9.160;2023-12-04T23:56:10;-0.30;99.90
